sensor_id;sensor_type;location;lat;lon;timestamp;pressure;altitude;pressure_sealevel;temperature
37536;BMP180;23379;51.554;6.736;2023-07-09T00:02:14;101308.00;;;25.80
37536;BMP180;23379;51.554;6.736;2023-07-09T00:04:39;101297.00;;;25.80
37536;BMP180;23379;51.554;6.736;2023-07-09T00:07:05;101283.00;;;25.40
37536;BMP180;23379;51.554;6.736;2023-07-09T00:09:30;101283.00;;;25.50
37536;BMP180;23379;51.554;6.736;2023-07-09T00:11:57;101298.00;;;25.30
37536;BMP180;23379;51.554;6.736;2023-07-09T00:14:23;101274.00;;;25.60
37536;BMP180;23379;51.554;6.736;2023-07-09T00:16:48;101270.00;;;25.40
37536;BMP180;23379;51.554;6.736;2023-07-09T00:19:18;101280.00;;;25.40
37536;BMP180;23379;51.554;6.736;2023-07-09T00:21:45;101298.00;;;25.30
37536;BMP180;23379;51.554;6.736;2023-07-09T00:24:12;101304.00;;;25.50
37536;BMP180;23379;51.554;6.736;2023-07-09T00:26:38;101298.00;;;25.40
37536;BMP180;23379;51.554;6.736;2023-07-09T00:29:09;101288.00;;;25.40
37536;BMP180;23379;51.554;6.736;2023-07-09T00:31:34;101282.00;;;25.60
37536;BMP180;23379;51.554;6.736;2023-07-09T00:34:06;101277.00;;;25.30
37536;BMP180;23379;51.554;6.736;2023-07-09T00:36:33;101285.00;;;25.20
37536;BMP180;23379;51.554;6.736;2023-07-09T00:38:58;101272.00;;;25.10
37536;BMP180;23379;51.554;6.736;2023-07-09T00:41:34;101286.00;;;25.20
37536;BMP180;23379;51.554;6.736;2023-07-09T00:44:28;101273.00;;;24.90
37536;BMP180;23379;51.554;6.736;2023-07-09T00:52:01;101273.00;;;24.50
37536;BMP180;23379;51.554;6.736;2023-07-09T00:57:00;101288.00;;;24.50
37536;BMP180;23379;51.554;6.736;2023-07-09T00:59:28;101275.00;;;24.40
37536;BMP180;23379;51.554;6.736;2023-07-09T01:01:57;101274.00;;;24.20
37536;BMP180;23379;51.554;6.736;2023-07-09T01:04:23;101268.00;;;24.30
37536;BMP180;23379;51.554;6.736;2023-07-09T01:06:52;101285.00;;;24.20
37536;BMP180;23379;51.554;6.736;2023-07-09T01:09:18;101288.00;;;24.10
37536;BMP180;23379;51.554;6.736;2023-07-09T01:11:44;101254.00;;;24.00
37536;BMP180;23379;51.554;6.736;2023-07-09T01:14:12;101287.00;;;23.90
37536;BMP180;23379;51.554;6.736;2023-07-09T01:16:41;101263.00;;;24.00
37536;BMP180;23379;51.554;6.736;2023-07-09T01:19:07;101289.00;;;24.00
37536;BMP180;23379;51.554;6.736;2023-07-09T01:21:33;101289.00;;;24.00
37536;BMP180;23379;51.554;6.736;2023-07-09T01:24:13;101288.00;;;23.90
37536;BMP180;23379;51.554;6.736;2023-07-09T01:26:39;101282.00;;;23.60
37536;BMP180;23379;51.554;6.736;2023-07-09T01:29:05;101294.00;;;23.40
37536;BMP180;23379;51.554;6.736;2023-07-09T01:31:30;101286.00;;;23.50
37536;BMP180;23379;51.554;6.736;2023-07-09T01:33:56;101294.00;;;23.30
37536;BMP180;23379;51.554;6.736;2023-07-09T01:36:21;101296.00;;;23.40
37536;BMP180;23379;51.554;6.736;2023-07-09T01:38:51;101291.00;;;23.20
37536;BMP180;23379;51.554;6.736;2023-07-09T01:41:18;101290.00;;;22.90
37536;BMP180;23379;51.554;6.736;2023-07-09T01:43:46;101290.00;;;22.90
37536;BMP180;23379;51.554;6.736;2023-07-09T01:46:12;101252.00;;;23.00
37536;BMP180;23379;51.554;6.736;2023-07-09T01:48:39;101296.00;;;22.90
37536;BMP180;23379;51.554;6.736;2023-07-09T01:51:12;101272.00;;;23.10
37536;BMP180;23379;51.554;6.736;2023-07-09T01:53:40;101284.00;;;23.10
37536;BMP180;23379;51.554;6.736;2023-07-09T01:56:05;101290.00;;;22.90
37536;BMP180;23379;51.554;6.736;2023-07-09T01:58:33;101273.00;;;23.00
37536;BMP180;23379;51.554;6.736;2023-07-09T02:00:59;101300.00;;;22.90
37536;BMP180;23379;51.554;6.736;2023-07-09T02:03:24;101282.00;;;22.80
37536;BMP180;23379;51.554;6.736;2023-07-09T02:05:52;101289.00;;;22.80
37536;BMP180;23379;51.554;6.736;2023-07-09T02:08:18;101270.00;;;22.90
37536;BMP180;23379;51.554;6.736;2023-07-09T02:11:37;101214.00;;;22.90
37536;BMP180;23379;51.554;6.736;2023-07-09T02:14:02;101297.00;;;22.70
37536;BMP180;23379;51.554;6.736;2023-07-09T02:16:27;101281.00;;;22.70
37536;BMP180;23379;51.554;6.736;2023-07-09T02:18:53;101251.00;;;22.50
37536;BMP180;23379;51.554;6.736;2023-07-09T02:21:18;101252.00;;;22.40
37536;BMP180;23379;51.554;6.736;2023-07-09T02:23:43;101276.00;;;22.40
37536;BMP180;23379;51.554;6.736;2023-07-09T02:26:09;101280.00;;;22.30
37536;BMP180;23379;51.554;6.736;2023-07-09T02:28:34;101276.00;;;22.30
37536;BMP180;23379;51.554;6.736;2023-07-09T02:31:00;101285.00;;;22.30
37536;BMP180;23379;51.554;6.736;2023-07-09T02:33:25;101279.00;;;22.20
37536;BMP180;23379;51.554;6.736;2023-07-09T02:35:50;101252.00;;;22.00
37536;BMP180;23379;51.554;6.736;2023-07-09T02:38:16;101286.00;;;21.80
37536;BMP180;23379;51.554;6.736;2023-07-09T02:40:41;101284.00;;;22.00
37536;BMP180;23379;51.554;6.736;2023-07-09T02:43:06;101286.00;;;22.00
37536;BMP180;23379;51.554;6.736;2023-07-09T02:45:31;101277.00;;;22.20
37536;BMP180;23379;51.554;6.736;2023-07-09T02:47:57;101275.00;;;22.10
37536;BMP180;23379;51.554;6.736;2023-07-09T02:50:22;101261.00;;;22.10
37536;BMP180;23379;51.554;6.736;2023-07-09T02:52:47;101292.00;;;22.20
37536;BMP180;23379;51.554;6.736;2023-07-09T02:55:13;101281.00;;;22.10
37536;BMP180;23379;51.554;6.736;2023-07-09T02:57:38;101281.00;;;21.90
37536;BMP180;23379;51.554;6.736;2023-07-09T03:00:04;101282.00;;;21.70
37536;BMP180;23379;51.554;6.736;2023-07-09T03:02:30;101303.00;;;21.80
37536;BMP180;23379;51.554;6.736;2023-07-09T03:04:56;101294.00;;;21.70
37536;BMP180;23379;51.554;6.736;2023-07-09T03:07:21;101275.00;;;21.70
37536;BMP180;23379;51.554;6.736;2023-07-09T03:09:46;101298.00;;;21.60
37536;BMP180;23379;51.554;6.736;2023-07-09T03:12:12;101292.00;;;21.50
37536;BMP180;23379;51.554;6.736;2023-07-09T03:14:37;101299.00;;;21.70
37536;BMP180;23379;51.554;6.736;2023-07-09T03:17:02;101290.00;;;21.50
37536;BMP180;23379;51.554;6.736;2023-07-09T03:19:28;101311.00;;;21.60
37536;BMP180;23379;51.554;6.736;2023-07-09T03:21:53;101253.00;;;21.70
37536;BMP180;23379;51.554;6.736;2023-07-09T03:24:19;101308.00;;;21.80
37536;BMP180;23379;51.554;6.736;2023-07-09T03:26:47;101319.00;;;21.70
37536;BMP180;23379;51.554;6.736;2023-07-09T03:29:13;101318.00;;;21.30
37536;BMP180;23379;51.554;6.736;2023-07-09T03:31:38;101314.00;;;21.40
37536;BMP180;23379;51.554;6.736;2023-07-09T03:34:04;101314.00;;;21.30
37536;BMP180;23379;51.554;6.736;2023-07-09T03:36:29;101328.00;;;21.30
37536;BMP180;23379;51.554;6.736;2023-07-09T03:38:55;101318.00;;;21.20
37536;BMP180;23379;51.554;6.736;2023-07-09T03:41:20;101336.00;;;21.10
37536;BMP180;23379;51.554;6.736;2023-07-09T03:43:45;101327.00;;;21.10
37536;BMP180;23379;51.554;6.736;2023-07-09T03:46:11;101316.00;;;21.30
37536;BMP180;23379;51.554;6.736;2023-07-09T03:48:37;101330.00;;;21.30
37536;BMP180;23379;51.554;6.736;2023-07-09T03:51:03;101319.00;;;21.10
37536;BMP180;23379;51.554;6.736;2023-07-09T03:53:28;101325.00;;;21.20
37536;BMP180;23379;51.554;6.736;2023-07-09T03:55:55;101321.00;;;21.20
37536;BMP180;23379;51.554;6.736;2023-07-09T03:58:21;101319.00;;;21.20
37536;BMP180;23379;51.554;6.736;2023-07-09T04:00:47;101326.00;;;21.20
37536;BMP180;23379;51.554;6.736;2023-07-09T04:03:13;101331.00;;;21.20
37536;BMP180;23379;51.554;6.736;2023-07-09T04:05:38;101320.00;;;21.30
37536;BMP180;23379;51.554;6.736;2023-07-09T04:08:04;101325.00;;;21.50
37536;BMP180;23379;51.554;6.736;2023-07-09T04:10:30;101309.00;;;21.50
37536;BMP180;23379;51.554;6.736;2023-07-09T04:12:55;101322.00;;;21.50
37536;BMP180;23379;51.554;6.736;2023-07-09T04:15:21;101333.00;;;21.40
37536;BMP180;23379;51.554;6.736;2023-07-09T04:17:46;101314.00;;;21.60
37536;BMP180;23379;51.554;6.736;2023-07-09T04:20:11;101326.00;;;21.70
37536;BMP180;23379;51.554;6.736;2023-07-09T04:22:39;101309.00;;;21.70
37536;BMP180;23379;51.554;6.736;2023-07-09T04:25:06;101309.00;;;22.00
37536;BMP180;23379;51.554;6.736;2023-07-09T04:27:32;101323.00;;;22.10
37536;BMP180;23379;51.554;6.736;2023-07-09T04:29:59;101326.00;;;22.10
37536;BMP180;23379;51.554;6.736;2023-07-09T04:32:24;101308.00;;;22.20
37536;BMP180;23379;51.554;6.736;2023-07-09T04:34:49;101306.00;;;22.30
37536;BMP180;23379;51.554;6.736;2023-07-09T04:37:16;101325.00;;;22.40
37536;BMP180;23379;51.554;6.736;2023-07-09T04:39:42;101315.00;;;22.70
37536;BMP180;23379;51.554;6.736;2023-07-09T04:42:13;101328.00;;;22.80
37536;BMP180;23379;51.554;6.736;2023-07-09T04:44:39;101302.00;;;23.00
37536;BMP180;23379;51.554;6.736;2023-07-09T04:47:05;101326.00;;;23.50
37536;BMP180;23379;51.554;6.736;2023-07-09T04:49:30;101311.00;;;23.50
37536;BMP180;23379;51.554;6.736;2023-07-09T04:51:56;101299.00;;;23.60
37536;BMP180;23379;51.554;6.736;2023-07-09T04:54:23;101313.00;;;23.70
37536;BMP180;23379;51.554;6.736;2023-07-09T04:56:49;101324.00;;;23.70
37536;BMP180;23379;51.554;6.736;2023-07-09T04:59:14;101328.00;;;24.00
37536;BMP180;23379;51.554;6.736;2023-07-09T05:01:40;101331.00;;;23.70
37536;BMP180;23379;51.554;6.736;2023-07-09T05:04:05;101307.00;;;24.10
37536;BMP180;23379;51.554;6.736;2023-07-09T05:06:32;101298.00;;;24.00
37536;BMP180;23379;51.554;6.736;2023-07-09T05:08:57;101336.00;;;24.10
37536;BMP180;23379;51.554;6.736;2023-07-09T05:11:23;101339.00;;;24.20
37536;BMP180;23379;51.554;6.736;2023-07-09T05:13:48;101271.00;;;24.20
37536;BMP180;23379;51.554;6.736;2023-07-09T05:16:13;101294.00;;;24.20
37536;BMP180;23379;51.554;6.736;2023-07-09T05:18:38;101328.00;;;24.50
37536;BMP180;23379;51.554;6.736;2023-07-09T05:21:04;101300.00;;;24.20
37536;BMP180;23379;51.554;6.736;2023-07-09T05:23:29;101328.00;;;24.30
37536;BMP180;23379;51.554;6.736;2023-07-09T05:25:59;101320.00;;;24.30
37536;BMP180;23379;51.554;6.736;2023-07-09T05:28:25;101306.00;;;24.40
37536;BMP180;23379;51.554;6.736;2023-07-09T05:30:50;101333.00;;;24.50
37536;BMP180;23379;51.554;6.736;2023-07-09T05:33:17;101334.00;;;24.60
37536;BMP180;23379;51.554;6.736;2023-07-09T05:35:43;101340.00;;;24.80
37536;BMP180;23379;51.554;6.736;2023-07-09T05:38:09;101320.00;;;24.90
37536;BMP180;23379;51.554;6.736;2023-07-09T05:40:34;101323.00;;;25.20
37536;BMP180;23379;51.554;6.736;2023-07-09T05:42:59;101334.00;;;25.10
37536;BMP180;23379;51.554;6.736;2023-07-09T05:45:25;101298.00;;;25.10
37536;BMP180;23379;51.554;6.736;2023-07-09T05:47:50;101318.00;;;25.30
37536;BMP180;23379;51.554;6.736;2023-07-09T05:50:15;101323.00;;;25.30
37536;BMP180;23379;51.554;6.736;2023-07-09T05:52:41;101339.00;;;25.50
37536;BMP180;23379;51.554;6.736;2023-07-09T05:55:06;101321.00;;;25.30
37536;BMP180;23379;51.554;6.736;2023-07-09T05:57:32;101335.00;;;25.40
37536;BMP180;23379;51.554;6.736;2023-07-09T05:59:57;101343.00;;;25.40
37536;BMP180;23379;51.554;6.736;2023-07-09T06:02:22;101352.00;;;25.60
37536;BMP180;23379;51.554;6.736;2023-07-09T06:04:48;101299.00;;;25.80
37536;BMP180;23379;51.554;6.736;2023-07-09T06:07:14;101336.00;;;25.80
37536;BMP180;23379;51.554;6.736;2023-07-09T06:09:40;101360.00;;;26.00
37536;BMP180;23379;51.554;6.736;2023-07-09T06:12:06;101359.00;;;25.80
37536;BMP180;23379;51.554;6.736;2023-07-09T06:14:33;101358.00;;;26.00
37536;BMP180;23379;51.554;6.736;2023-07-09T06:16:59;101340.00;;;26.00
37536;BMP180;23379;51.554;6.736;2023-07-09T06:19:25;101355.00;;;26.00
37536;BMP180;23379;51.554;6.736;2023-07-09T06:21:51;101332.00;;;26.30
37536;BMP180;23379;51.554;6.736;2023-07-09T06:24:16;101364.00;;;26.40
37536;BMP180;23379;51.554;6.736;2023-07-09T06:26:42;101350.00;;;26.70
37536;BMP180;23379;51.554;6.736;2023-07-09T06:29:07;101364.00;;;26.90
37536;BMP180;23379;51.554;6.736;2023-07-09T06:31:33;101373.00;;;26.50
37536;BMP180;23379;51.554;6.736;2023-07-09T06:33:58;101307.00;;;26.60
37536;BMP180;23379;51.554;6.736;2023-07-09T06:37:17;101292.00;;;26.70
37536;BMP180;23379;51.554;6.736;2023-07-09T06:39:53;101376.00;;;26.60
37536;BMP180;23379;51.554;6.736;2023-07-09T06:42:19;101341.00;;;26.90
37536;BMP180;23379;51.554;6.736;2023-07-09T06:44:44;101316.00;;;27.20
37536;BMP180;23379;51.554;6.736;2023-07-09T06:47:09;101316.00;;;27.30
37536;BMP180;23379;51.554;6.736;2023-07-09T06:49:34;101344.00;;;28.10
37536;BMP180;23379;51.554;6.736;2023-07-09T06:52:35;101377.00;;;28.10
37536;BMP180;23379;51.554;6.736;2023-07-09T06:55:00;101371.00;;;28.20
37536;BMP180;23379;51.554;6.736;2023-07-09T06:57:26;101366.00;;;28.10
37536;BMP180;23379;51.554;6.736;2023-07-09T06:59:51;101365.00;;;27.90
37536;BMP180;23379;51.554;6.736;2023-07-09T07:02:16;101371.00;;;27.90
37536;BMP180;23379;51.554;6.736;2023-07-09T07:04:42;101359.00;;;28.00
37536;BMP180;23379;51.554;6.736;2023-07-09T07:07:08;101352.00;;;28.10
37536;BMP180;23379;51.554;6.736;2023-07-09T07:09:34;101368.00;;;28.10
37536;BMP180;23379;51.554;6.736;2023-07-09T07:12:00;101352.00;;;27.90
37536;BMP180;23379;51.554;6.736;2023-07-09T07:14:25;101365.00;;;28.20
37536;BMP180;23379;51.554;6.736;2023-07-09T07:16:50;101356.00;;;28.20
37536;BMP180;23379;51.554;6.736;2023-07-09T07:19:16;101363.00;;;28.40
37536;BMP180;23379;51.554;6.736;2023-07-09T07:21:42;101364.00;;;28.40
37536;BMP180;23379;51.554;6.736;2023-07-09T07:24:07;101339.00;;;28.70
37536;BMP180;23379;51.554;6.736;2023-07-09T07:26:33;101348.00;;;28.80
37536;BMP180;23379;51.554;6.736;2023-07-09T07:28:58;101336.00;;;28.60
37536;BMP180;23379;51.554;6.736;2023-07-09T07:31:24;101332.00;;;29.10
37536;BMP180;23379;51.554;6.736;2023-07-09T07:33:50;101359.00;;;29.20
37536;BMP180;23379;51.554;6.736;2023-07-09T07:36:16;101326.00;;;29.50
37536;BMP180;23379;51.554;6.736;2023-07-09T07:38:41;101346.00;;;29.50
37536;BMP180;23379;51.554;6.736;2023-07-09T07:43:33;101346.00;;;29.60
37536;BMP180;23379;51.554;6.736;2023-07-09T07:45:58;101352.00;;;30.00
37536;BMP180;23379;51.554;6.736;2023-07-09T07:48:23;101351.00;;;30.20
37536;BMP180;23379;51.554;6.736;2023-07-09T07:50:48;101337.00;;;30.20
37536;BMP180;23379;51.554;6.736;2023-07-09T07:53:15;101359.00;;;30.70
37536;BMP180;23379;51.554;6.736;2023-07-09T07:55:41;101339.00;;;30.50
37536;BMP180;23379;51.554;6.736;2023-07-09T07:58:12;101345.00;;;30.90
37536;BMP180;23379;51.554;6.736;2023-07-09T08:00:38;101304.00;;;30.90
37536;BMP180;23379;51.554;6.736;2023-07-09T08:03:03;101350.00;;;31.10
37536;BMP180;23379;51.554;6.736;2023-07-09T08:05:29;101357.00;;;31.00
37536;BMP180;23379;51.554;6.736;2023-07-09T08:07:55;101346.00;;;31.10
37536;BMP180;23379;51.554;6.736;2023-07-09T08:10:20;101367.00;;;31.50
37536;BMP180;23379;51.554;6.736;2023-07-09T08:12:45;101316.00;;;31.70
37536;BMP180;23379;51.554;6.736;2023-07-09T08:15:11;101346.00;;;32.00
37536;BMP180;23379;51.554;6.736;2023-07-09T08:17:37;101347.00;;;33.00
37536;BMP180;23379;51.554;6.736;2023-07-09T08:20:02;101355.00;;;33.30
37536;BMP180;23379;51.554;6.736;2023-07-09T08:22:27;101346.00;;;33.80
37536;BMP180;23379;51.554;6.736;2023-07-09T08:24:53;101350.00;;;34.10
37536;BMP180;23379;51.554;6.736;2023-07-09T08:27:19;101339.00;;;34.20
37536;BMP180;23379;51.554;6.736;2023-07-09T08:29:44;101338.00;;;34.70
37536;BMP180;23379;51.554;6.736;2023-07-09T08:32:11;101349.00;;;34.80
37536;BMP180;23379;51.554;6.736;2023-07-09T08:34:38;101361.00;;;35.70
37536;BMP180;23379;51.554;6.736;2023-07-09T08:37:05;101352.00;;;35.40
37536;BMP180;23379;51.554;6.736;2023-07-09T08:39:31;101343.00;;;35.30
37536;BMP180;23379;51.554;6.736;2023-07-09T08:42:04;101346.00;;;36.50
37536;BMP180;23379;51.554;6.736;2023-07-09T08:44:45;101350.00;;;36.50
37536;BMP180;23379;51.554;6.736;2023-07-09T08:50:15;101343.00;;;37.50
37536;BMP180;23379;51.554;6.736;2023-07-09T08:52:42;101336.00;;;38.30
37536;BMP180;23379;51.554;6.736;2023-07-09T08:55:12;101357.00;;;38.10
37536;BMP180;23379;51.554;6.736;2023-07-09T08:57:41;101356.00;;;38.70
37536;BMP180;23379;51.554;6.736;2023-07-09T09:02:52;101341.00;;;38.60
37536;BMP180;23379;51.554;6.736;2023-07-09T09:05:21;101338.00;;;39.20
37536;BMP180;23379;51.554;6.736;2023-07-09T09:07:56;101348.00;;;38.80
37536;BMP180;23379;51.554;6.736;2023-07-09T09:10:30;101350.00;;;37.50
37536;BMP180;23379;51.554;6.736;2023-07-09T09:13:18;101328.00;;;38.60
37536;BMP180;23379;51.554;6.736;2023-07-09T09:15:47;101355.00;;;38.90
37536;BMP180;23379;51.554;6.736;2023-07-09T09:18:26;101348.00;;;38.80
37536;BMP180;23379;51.554;6.736;2023-07-09T09:20:57;101341.00;;;38.90
37536;BMP180;23379;51.554;6.736;2023-07-09T09:23:25;101344.00;;;38.80
37536;BMP180;23379;51.554;6.736;2023-07-09T09:25:55;101335.00;;;39.10
37536;BMP180;23379;51.554;6.736;2023-07-09T09:28:21;101336.00;;;39.40
37536;BMP180;23379;51.554;6.736;2023-07-09T09:30:47;101329.00;;;39.70
37536;BMP180;23379;51.554;6.736;2023-07-09T09:33:16;101338.00;;;40.30
37536;BMP180;23379;51.554;6.736;2023-07-09T09:35:44;101331.00;;;39.20
37536;BMP180;23379;51.554;6.736;2023-07-09T09:38:12;101343.00;;;40.40
37536;BMP180;23379;51.554;6.736;2023-07-09T09:40:37;101337.00;;;40.40
37536;BMP180;23379;51.554;6.736;2023-07-09T09:43:11;101336.00;;;41.50
37536;BMP180;23379;51.554;6.736;2023-07-09T09:45:39;101329.00;;;40.30
37536;BMP180;23379;51.554;6.736;2023-07-09T09:48:18;101331.00;;;39.60
37536;BMP180;23379;51.554;6.736;2023-07-09T09:50:45;101330.00;;;39.70
37536;BMP180;23379;51.554;6.736;2023-07-09T09:53:18;101328.00;;;40.50
37536;BMP180;23379;51.554;6.736;2023-07-09T09:55:47;101298.00;;;41.30
37536;BMP180;23379;51.554;6.736;2023-07-09T09:58:15;101322.00;;;41.20
37536;BMP180;23379;51.554;6.736;2023-07-09T10:00:50;101327.00;;;41.20
37536;BMP180;23379;51.554;6.736;2023-07-09T10:03:17;101334.00;;;40.10
37536;BMP180;23379;51.554;6.736;2023-07-09T10:05:53;101321.00;;;39.80
37536;BMP180;23379;51.554;6.736;2023-07-09T10:14:13;101334.00;;;41.20
37536;BMP180;23379;51.554;6.736;2023-07-09T10:16:45;101312.00;;;40.90
37536;BMP180;23379;51.554;6.736;2023-07-09T10:19:49;101323.00;;;41.00
37536;BMP180;23379;51.554;6.736;2023-07-09T10:22:40;101310.00;;;41.20
37536;BMP180;23379;51.554;6.736;2023-07-09T10:25:16;101318.00;;;41.60
37536;BMP180;23379;51.554;6.736;2023-07-09T10:27:53;101308.00;;;40.20
37536;BMP180;23379;51.554;6.736;2023-07-09T10:33:19;101311.00;;;41.70
37536;BMP180;23379;51.554;6.736;2023-07-09T10:38:47;101316.00;;;42.50
37536;BMP180;23379;51.554;6.736;2023-07-09T10:41:16;101308.00;;;42.10
37536;BMP180;23379;51.554;6.736;2023-07-09T10:46:31;101313.00;;;41.40
37536;BMP180;23379;51.554;6.736;2023-07-09T10:48:58;101314.00;;;41.40
37536;BMP180;23379;51.554;6.736;2023-07-09T10:51:50;101327.00;;;41.80
37536;BMP180;23379;51.554;6.736;2023-07-09T10:54:39;101326.00;;;41.30
37536;BMP180;23379;51.554;6.736;2023-07-09T10:57:18;101314.00;;;41.20
37536;BMP180;23379;51.554;6.736;2023-07-09T10:59:48;101312.00;;;41.80
37536;BMP180;23379;51.554;6.736;2023-07-09T11:02:27;101317.00;;;42.60
37536;BMP180;23379;51.554;6.736;2023-07-09T11:04:58;101314.00;;;42.60
37536;BMP180;23379;51.554;6.736;2023-07-09T11:07:33;101302.00;;;42.70
37536;BMP180;23379;51.554;6.736;2023-07-09T11:10:02;101307.00;;;43.20
37536;BMP180;23379;51.554;6.736;2023-07-09T11:12:34;101300.00;;;42.50
37536;BMP180;23379;51.554;6.736;2023-07-09T11:15:05;101298.00;;;43.60
37536;BMP180;23379;51.554;6.736;2023-07-09T11:17:34;101286.00;;;42.30
37536;BMP180;23379;51.554;6.736;2023-07-09T11:20:07;101285.00;;;42.00
37536;BMP180;23379;51.554;6.736;2023-07-09T11:22:39;101278.00;;;42.50
37536;BMP180;23379;51.554;6.736;2023-07-09T11:25:12;101275.00;;;42.20
37536;BMP180;23379;51.554;6.736;2023-07-09T11:27:54;101275.00;;;40.80
37536;BMP180;23379;51.554;6.736;2023-07-09T11:30:27;101273.00;;;42.50
37536;BMP180;23379;51.554;6.736;2023-07-09T11:32:59;101272.00;;;43.50
37536;BMP180;23379;51.554;6.736;2023-07-09T11:35:27;101261.00;;;41.70
37536;BMP180;23379;51.554;6.736;2023-07-09T11:37:55;101252.00;;;41.10
37536;BMP180;23379;51.554;6.736;2023-07-09T11:40:22;101254.00;;;42.70
37536;BMP180;23379;51.554;6.736;2023-07-09T11:42:56;101258.00;;;43.10
37536;BMP180;23379;51.554;6.736;2023-07-09T11:45:31;101228.00;;;43.20
37536;BMP180;23379;51.554;6.736;2023-07-09T11:48:02;101251.00;;;42.70
37536;BMP180;23379;51.554;6.736;2023-07-09T11:50:33;101263.00;;;41.80
37536;BMP180;23379;51.554;6.736;2023-07-09T11:55:45;101266.00;;;41.50
37536;BMP180;23379;51.554;6.736;2023-07-09T11:58:13;101266.00;;;40.20
37536;BMP180;23379;51.554;6.736;2023-07-09T12:00:44;101256.00;;;40.70
37536;BMP180;23379;51.554;6.736;2023-07-09T12:03:23;101269.00;;;41.50
37536;BMP180;23379;51.554;6.736;2023-07-09T12:05:53;101270.00;;;42.00
37536;BMP180;23379;51.554;6.736;2023-07-09T12:08:33;101277.00;;;42.40
37536;BMP180;23379;51.554;6.736;2023-07-09T12:10:59;101274.00;;;42.30
37536;BMP180;23379;51.554;6.736;2023-07-09T12:13:24;101264.00;;;41.70
37536;BMP180;23379;51.554;6.736;2023-07-09T12:15:49;101259.00;;;40.00
37536;BMP180;23379;51.554;6.736;2023-07-09T12:18:15;101235.00;;;40.40
37536;BMP180;23379;51.554;6.736;2023-07-09T12:20:47;101279.00;;;41.40
37536;BMP180;23379;51.554;6.736;2023-07-09T12:23:29;101272.00;;;42.50
37536;BMP180;23379;51.554;6.736;2023-07-09T12:25:55;101270.00;;;40.20
37536;BMP180;23379;51.554;6.736;2023-07-09T12:28:24;101266.00;;;39.90
37536;BMP180;23379;51.554;6.736;2023-07-09T12:30:51;101272.00;;;39.70
37536;BMP180;23379;51.554;6.736;2023-07-09T12:33:22;101261.00;;;38.90
37536;BMP180;23379;51.554;6.736;2023-07-09T12:35:55;101250.00;;;39.50
37536;BMP180;23379;51.554;6.736;2023-07-09T12:38:24;101234.00;;;39.00
37536;BMP180;23379;51.554;6.736;2023-07-09T12:40:50;101252.00;;;40.40
37536;BMP180;23379;51.554;6.736;2023-07-09T12:43:28;101245.00;;;39.60
37536;BMP180;23379;51.554;6.736;2023-07-09T12:45:58;101233.00;;;39.80
37536;BMP180;23379;51.554;6.736;2023-07-09T12:48:28;101253.00;;;40.50
37536;BMP180;23379;51.554;6.736;2023-07-09T12:50:58;101251.00;;;40.40
37536;BMP180;23379;51.554;6.736;2023-07-09T12:53:27;101237.00;;;41.00
37536;BMP180;23379;51.554;6.736;2023-07-09T12:55:57;101243.00;;;41.30
37536;BMP180;23379;51.554;6.736;2023-07-09T12:58:26;101232.00;;;40.70
37536;BMP180;23379;51.554;6.736;2023-07-09T13:00:54;101229.00;;;40.00
37536;BMP180;23379;51.554;6.736;2023-07-09T13:03:24;101235.00;;;40.00
37536;BMP180;23379;51.554;6.736;2023-07-09T13:05:59;101226.00;;;39.60
37536;BMP180;23379;51.554;6.736;2023-07-09T13:08:30;101210.00;;;39.00
37536;BMP180;23379;51.554;6.736;2023-07-09T13:10:56;101216.00;;;38.90
37536;BMP180;23379;51.554;6.736;2023-07-09T13:13:23;101180.00;;;38.70
37536;BMP180;23379;51.554;6.736;2023-07-09T13:15:55;101197.00;;;37.70
37536;BMP180;23379;51.554;6.736;2023-07-09T13:18:23;101209.00;;;37.70
37536;BMP180;23379;51.554;6.736;2023-07-09T13:20:50;101197.00;;;38.30
37536;BMP180;23379;51.554;6.736;2023-07-09T13:23:20;101203.00;;;38.20
37536;BMP180;23379;51.554;6.736;2023-07-09T13:25:47;101205.00;;;38.40
37536;BMP180;23379;51.554;6.736;2023-07-09T13:30:43;101180.00;;;38.10
37536;BMP180;23379;51.554;6.736;2023-07-09T13:33:09;101143.00;;;38.00
37536;BMP180;23379;51.554;6.736;2023-07-09T13:35:35;101176.00;;;38.00
37536;BMP180;23379;51.554;6.736;2023-07-09T13:38:00;101164.00;;;38.00
37536;BMP180;23379;51.554;6.736;2023-07-09T13:40:26;101167.00;;;37.50
37536;BMP180;23379;51.554;6.736;2023-07-09T13:42:51;101171.00;;;37.40
37536;BMP180;23379;51.554;6.736;2023-07-09T13:45:24;101182.00;;;37.10
37536;BMP180;23379;51.554;6.736;2023-07-09T13:47:51;101164.00;;;36.60
37536;BMP180;23379;51.554;6.736;2023-07-09T13:50:18;101180.00;;;36.10
37536;BMP180;23379;51.554;6.736;2023-07-09T13:52:45;101183.00;;;35.60
37536;BMP180;23379;51.554;6.736;2023-07-09T13:55:23;101188.00;;;35.80
37536;BMP180;23379;51.554;6.736;2023-07-09T13:57:49;101190.00;;;35.30
37536;BMP180;23379;51.554;6.736;2023-07-09T14:00:15;101185.00;;;34.60
37536;BMP180;23379;51.554;6.736;2023-07-09T14:02:41;101210.00;;;33.10
37536;BMP180;23379;51.554;6.736;2023-07-09T14:05:12;101230.00;;;30.70
37536;BMP180;23379;51.554;6.736;2023-07-09T14:07:40;101228.00;;;28.40
37536;BMP180;23379;51.554;6.736;2023-07-09T14:10:11;101207.00;;;26.30
37536;BMP180;23379;51.554;6.736;2023-07-09T14:12:40;101199.00;;;25.70
37536;BMP180;23379;51.554;6.736;2023-07-09T14:15:17;101168.00;;;24.90
37536;BMP180;23379;51.554;6.736;2023-07-09T14:17:43;101170.00;;;24.60
37536;BMP180;23379;51.554;6.736;2023-07-09T14:20:11;101162.00;;;24.10
37536;BMP180;23379;51.554;6.736;2023-07-09T14:22:38;101177.00;;;24.20
37536;BMP180;23379;51.554;6.736;2023-07-09T14:25:05;101173.00;;;24.20
37536;BMP180;23379;51.554;6.736;2023-07-09T14:27:31;101169.00;;;24.20
37536;BMP180;23379;51.554;6.736;2023-07-09T14:29:57;101121.00;;;24.10
37536;BMP180;23379;51.554;6.736;2023-07-09T14:32:32;101164.00;;;24.00
37536;BMP180;23379;51.554;6.736;2023-07-09T14:34:58;101163.00;;;24.10
37536;BMP180;23379;51.554;6.736;2023-07-09T14:37:24;101150.00;;;24.00
37536;BMP180;23379;51.554;6.736;2023-07-09T14:39:49;101164.00;;;24.20